sensor_id;sensor_type;location;lat;lon;timestamp;pressure;altitude;pressure_sealevel;temperature;humidity
13476;BME280;6810;63.824;20.288;2023-06-10T00:00:12;103110.00;;;8.75;51.23
13476;BME280;6810;63.824;20.288;2023-06-10T00:02:59;103106.53;;;8.67;51.39
13476;BME280;6810;63.824;20.288;2023-06-10T00:05:46;103109.25;;;8.63;51.38
13476;BME280;6810;63.824;20.288;2023-06-10T00:08:33;103113.72;;;8.61;51.67
13476;BME280;6810;63.824;20.288;2023-06-10T00:11:21;103108.50;;;8.50;51.46
13476;BME280;6810;63.824;20.288;2023-06-10T00:14:08;103116.53;;;8.46;51.57
13476;BME280;6810;63.824;20.288;2023-06-10T00:16:55;103114.84;;;8.40;51.11
13476;BME280;6810;63.824;20.288;2023-06-10T00:19:42;103117.53;;;8.37;51.57
13476;BME280;6810;63.824;20.288;2023-06-10T00:22:29;103109.63;;;8.28;51.63
13476;BME280;6810;63.824;20.288;2023-06-10T00:25:16;103115.88;;;8.24;51.99
13476;BME280;6810;63.824;20.288;2023-06-10T00:28:03;103113.25;;;8.18;51.84
13476;BME280;6810;63.824;20.288;2023-06-10T00:30:50;103038.44;;;7.76;51.85
13476;BME280;6810;63.824;20.288;2023-06-10T00:33:38;103115.09;;;8.10;51.45
13476;BME280;6810;63.824;20.288;2023-06-10T00:36:25;103109.00;;;8.04;51.65
13476;BME280;6810;63.824;20.288;2023-06-10T00:39:13;103116.97;;;8.01;51.83
13476;BME280;6810;63.824;20.288;2023-06-10T00:42:00;103111.69;;;7.96;51.98
13476;BME280;6810;63.824;20.288;2023-06-10T00:44:47;103109.09;;;7.92;52.11
13476;BME280;6810;63.824;20.288;2023-06-10T00:47:36;103120.66;;;7.86;52.25
13476;BME280;6810;63.824;20.288;2023-06-10T00:50:23;103118.03;;;7.82;52.23
13476;BME280;6810;63.824;20.288;2023-06-10T00:53:10;103122.50;;;7.77;52.35
13476;BME280;6810;63.824;20.288;2023-06-10T00:55:58;103117.25;;;7.68;52.42
13476;BME280;6810;63.824;20.288;2023-06-10T00:58:45;103129.63;;;7.69;52.47
13476;BME280;6810;63.824;20.288;2023-06-10T01:01:32;103136.75;;;7.65;52.47
13476;BME280;6810;63.824;20.288;2023-06-10T01:04:19;103138.56;;;7.62;52.60
13476;BME280;6810;63.824;20.288;2023-06-10T01:10:12;103141.28;;;7.53;52.57
13476;BME280;6810;63.824;20.288;2023-06-10T01:13:03;103146.63;;;7.48;53.41
13476;BME280;6810;63.824;20.288;2023-06-10T01:15:53;103146.66;;;7.44;52.90
13476;BME280;6810;63.824;20.288;2023-06-10T01:18:40;103132.56;;;7.31;53.22
13476;BME280;6810;63.824;20.288;2023-06-10T01:21:27;103143.16;;;7.34;53.35
13476;BME280;6810;63.824;20.288;2023-06-10T01:24:15;103142.31;;;7.29;53.45
13476;BME280;6810;63.824;20.288;2023-06-10T01:27:05;103137.03;;;7.22;53.74
13476;BME280;6810;63.824;20.288;2023-06-10T01:30:03;103137.94;;;7.21;53.44
13476;BME280;6810;63.824;20.288;2023-06-10T01:32:52;103130.94;;;7.09;53.73
13476;BME280;6810;63.824;20.288;2023-06-10T01:35:43;103143.28;;;7.13;53.92
13476;BME280;6810;63.824;20.288;2023-06-10T01:38:35;103145.94;;;7.12;53.49
13476;BME280;6810;63.824;20.288;2023-06-10T01:41:24;103137.16;;;7.03;54.31
13476;BME280;6810;63.824;20.288;2023-06-10T01:44:12;103148.63;;;7.07;53.85
13476;BME280;6810;63.824;20.288;2023-06-10T01:47:00;103138.91;;;7.03;54.26
13476;BME280;6810;63.824;20.288;2023-06-10T01:49:47;103138.91;;;7.00;54.38
13476;BME280;6810;63.824;20.288;2023-06-10T01:52:34;103143.38;;;6.98;54.69
13476;BME280;6810;63.824;20.288;2023-06-10T01:55:21;103140.75;;;6.92;54.62
13476;BME280;6810;63.824;20.288;2023-06-10T01:58:09;103128.38;;;6.86;54.33
13476;BME280;6810;63.824;20.288;2023-06-10T02:00:56;103145.16;;;6.91;55.44
13476;BME280;6810;63.824;20.288;2023-06-10T02:03:43;103139.88;;;6.87;55.52
13476;BME280;6810;63.824;20.288;2023-06-10T02:06:31;103150.47;;;6.87;55.46
13476;BME280;6810;63.824;20.288;2023-06-10T02:09:18;103148.72;;;6.86;54.96
13476;BME280;6810;63.824;20.288;2023-06-10T02:12:06;103150.50;;;6.84;55.79
13476;BME280;6810;63.824;20.288;2023-06-10T02:14:53;103142.53;;;6.84;55.20
13476;BME280;6810;63.824;20.288;2023-06-10T02:17:40;103145.19;;;6.84;55.20
13476;BME280;6810;63.824;20.288;2023-06-10T02:20:47;103140.81;;;6.78;55.89
13476;BME280;6810;63.824;20.288;2023-06-10T02:23:34;103131.97;;;6.76;56.13
13476;BME280;6810;63.824;20.288;2023-06-10T02:26:21;103147.84;;;6.82;56.06
13476;BME280;6810;63.824;20.288;2023-06-10T02:29:09;103141.66;;;6.80;55.70
13476;BME280;6810;63.824;20.288;2023-06-10T02:31:56;103145.19;;;6.84;56.40
13476;BME280;6810;63.824;20.288;2023-06-10T02:34:43;103149.59;;;6.86;55.98
13476;BME280;6810;63.824;20.288;2023-06-10T02:37:31;103148.75;;;6.83;55.56
13476;BME280;6810;63.824;20.288;2023-06-10T02:40:19;103065.84;;;6.39;56.16
13476;BME280;6810;63.824;20.288;2023-06-10T02:43:07;103146.94;;;6.85;56.69
13476;BME280;6810;63.824;20.288;2023-06-10T02:45:54;103145.19;;;6.87;56.82
13476;BME280;6810;63.824;20.288;2023-06-10T02:48:43;103137.25;;;6.85;57.12
13476;BME280;6810;63.824;20.288;2023-06-10T02:51:33;103146.06;;;6.90;57.48
13476;BME280;6810;63.824;20.288;2023-06-10T02:54:21;103151.34;;;6.92;57.34
13476;BME280;6810;63.824;20.288;2023-06-10T02:57:09;103149.56;;;6.94;56.71
13476;BME280;6810;63.824;20.288;2023-06-10T02:59:56;103154.00;;;6.96;57.72
13476;BME280;6810;63.824;20.288;2023-06-10T03:02:43;103077.28;;;6.53;56.80
13476;BME280;6810;63.824;20.288;2023-06-10T03:05:35;103157.47;;;7.04;57.97
13476;BME280;6810;63.824;20.288;2023-06-10T03:08:23;103161.91;;;7.05;57.22
13476;BME280;6810;63.824;20.288;2023-06-10T03:11:13;103166.28;;;7.11;57.92
13476;BME280;6810;63.824;20.288;2023-06-10T03:14:01;103160.09;;;7.15;57.74
13476;BME280;6810;63.824;20.288;2023-06-10T03:16:48;103145.06;;;7.11;57.68
13476;BME280;6810;63.824;20.288;2023-06-10T03:19:38;103163.56;;;7.25;58.04
13476;BME280;6810;63.824;20.288;2023-06-10T03:22:25;103158.22;;;7.29;58.09
13476;BME280;6810;63.824;20.288;2023-06-10T03:25:13;103158.19;;;7.34;58.02
13476;BME280;6810;63.824;20.288;2023-06-10T03:28:03;103163.50;;;7.40;58.16
13476;BME280;6810;63.824;20.288;2023-06-10T03:30:50;103165.22;;;7.44;57.76
13476;BME280;6810;63.824;20.288;2023-06-10T03:33:37;103163.44;;;7.49;58.08
13476;BME280;6810;63.824;20.288;2023-06-10T03:36:26;103158.09;;;7.53;57.93
13476;BME280;6810;63.824;20.288;2023-06-10T03:39:13;103163.34;;;7.59;58.17
13476;BME280;6810;63.824;20.288;2023-06-10T03:42:02;103167.72;;;7.63;57.59
13476;BME280;6810;63.824;20.288;2023-06-10T03:44:49;103152.72;;;7.62;58.58
13476;BME280;6810;63.824;20.288;2023-06-10T03:47:37;103158.81;;;7.75;58.26
13476;BME280;6810;63.824;20.288;2023-06-10T03:50:31;103168.50;;;7.80;58.54
13476;BME280;6810;63.824;20.288;2023-06-10T03:53:20;103100.56;;;7.52;58.54
13476;BME280;6810;63.824;20.288;2023-06-10T03:56:07;103163.06;;;7.94;59.20
13476;BME280;6810;63.824;20.288;2023-06-10T03:58:54;103158.59;;;8.00;59.36
13476;BME280;6810;63.824;20.288;2023-06-10T04:01:42;103165.59;;;8.07;59.63
13476;BME280;6810;63.824;20.288;2023-06-10T04:04:29;103156.69;;;8.16;59.76
13476;BME280;6810;63.824;20.288;2023-06-10T04:07:17;103150.44;;;8.20;60.16
13476;BME280;6810;63.824;20.288;2023-06-10T04:10:04;103164.50;;;8.34;60.36
13476;BME280;6810;63.824;20.288;2023-06-10T04:12:53;103154.69;;;8.43;60.93
13476;BME280;6810;63.824;20.288;2023-06-10T04:15:48;103116.69;;;8.34;61.10
13476;BME280;6810;63.824;20.288;2023-06-10T04:18:35;103159.78;;;8.61;61.56
13476;BME280;6810;63.824;20.288;2023-06-10T04:21:23;103166.72;;;8.74;61.87
13476;BME280;6810;63.824;20.288;2023-06-10T04:24:10;103151.53;;;8.84;62.22
13476;BME280;6810;63.824;20.288;2023-06-10T04:26:57;103156.75;;;8.93;62.25
13476;BME280;6810;63.824;20.288;2023-06-10T04:29:44;103150.41;;;9.05;61.90
13476;BME280;6810;63.824;20.288;2023-06-10T04:32:34;103160.03;;;9.13;62.46
13476;BME280;6810;63.824;20.288;2023-06-10T04:35:21;103161.63;;;9.25;62.00
13476;BME280;6810;63.824;20.288;2023-06-10T04:38:12;103155.31;;;9.33;61.31
13476;BME280;6810;63.824;20.288;2023-06-10T04:40:59;103128.78;;;9.27;61.47
13476;BME280;6810;63.824;20.288;2023-06-10T04:43:46;103154.13;;;9.52;61.54
13476;BME280;6810;63.824;20.288;2023-06-10T04:46:33;103142.47;;;9.62;62.04
13476;BME280;6810;63.824;20.288;2023-06-10T04:49:21;103145.88;;;9.72;61.57
13476;BME280;6810;63.824;20.288;2023-06-10T04:52:08;103144.81;;;9.80;61.55
13476;BME280;6810;63.824;20.288;2023-06-10T04:54:55;103145.53;;;9.91;61.22
13476;BME280;6810;63.824;20.288;2023-06-10T04:57:43;103141.78;;;10.03;60.64
13476;BME280;6810;63.824;20.288;2023-06-10T05:00:30;103143.44;;;10.11;60.76
13476;BME280;6810;63.824;20.288;2023-06-10T05:03:17;103120.38;;;10.09;59.96
13476;BME280;6810;63.824;20.288;2023-06-10T05:06:04;103139.50;;;10.32;60.47
13476;BME280;6810;63.824;20.288;2023-06-10T05:08:51;103130.53;;;10.37;59.26
13476;BME280;6810;63.824;20.288;2023-06-10T05:11:38;103095.19;;;10.26;59.38
13476;BME280;6810;63.824;20.288;2023-06-10T05:14:25;103135.38;;;10.62;59.42
13476;BME280;6810;63.824;20.288;2023-06-10T05:17:12;103132.50;;;10.72;59.07
13476;BME280;6810;63.824;20.288;2023-06-10T05:19:59;103138.53;;;10.82;57.57
13476;BME280;6810;63.824;20.288;2023-06-10T05:22:46;103139.19;;;10.93;58.07
13476;BME280;6810;63.824;20.288;2023-06-10T05:25:33;103137.19;;;11.02;56.63
13476;BME280;6810;63.824;20.288;2023-06-10T05:28:20;103136.94;;;11.13;56.26
13476;BME280;6810;63.824;20.288;2023-06-10T05:31:08;103143.88;;;11.21;55.56
13476;BME280;6810;63.824;20.288;2023-06-10T05:33:55;103139.31;;;11.28;55.28
13476;BME280;6810;63.824;20.288;2023-06-10T05:36:42;103139.31;;;11.28;54.89
13476;BME280;6810;63.824;20.288;2023-06-10T05:39:29;103134.59;;;11.37;54.19
13476;BME280;6810;63.824;20.288;2023-06-10T05:42:16;103117.88;;;11.31;55.33
13476;BME280;6810;63.824;20.288;2023-06-10T05:45:05;103134.38;;;11.46;55.40
13476;BME280;6810;63.824;20.288;2023-06-10T05:47:52;103144.00;;;11.55;55.97
13476;BME280;6810;63.824;20.288;2023-06-10T05:50:39;103145.72;;;11.57;55.96
13476;BME280;6810;63.824;20.288;2023-06-10T05:53:26;103140.22;;;11.65;57.64
13476;BME280;6810;63.824;20.288;2023-06-10T05:56:14;103143.66;;;11.70;57.32
13476;BME280;6810;63.824;20.288;2023-06-10T05:59:01;103132.19;;;11.65;56.81
13476;BME280;6810;63.824;20.288;2023-06-10T06:01:49;103150.56;;;11.78;57.71
13476;BME280;6810;63.824;20.288;2023-06-10T06:04:36;103154.91;;;11.84;59.10
13476;BME280;6810;63.824;20.288;2023-06-10T06:07:23;103142.34;;;11.86;58.77
13476;BME280;6810;63.824;20.288;2023-06-10T06:10:10;103144.88;;;11.93;58.64
13476;BME280;6810;63.824;20.288;2023-06-10T06:12:57;103107.00;;;11.76;58.85
13476;BME280;6810;63.824;20.288;2023-06-10T06:15:44;103126.16;;;11.93;59.90
13476;BME280;6810;63.824;20.288;2023-06-10T06:18:32;103145.34;;;12.09;59.17
13476;BME280;6810;63.824;20.288;2023-06-10T06:21:19;103105.66;;;11.92;58.99
13476;BME280;6810;63.824;20.288;2023-06-10T06:24:06;103144.13;;;12.22;58.51
13476;BME280;6810;63.824;20.288;2023-06-10T06:26:53;103144.97;;;12.24;58.41
13476;BME280;6810;63.824;20.288;2023-06-10T06:29:41;103150.16;;;12.30;57.65
13476;BME280;6810;63.824;20.288;2023-06-10T06:32:28;103148.25;;;12.34;58.02
13476;BME280;6810;63.824;20.288;2023-06-10T06:35:15;103150.84;;;12.37;56.88
13476;BME280;6810;63.824;20.288;2023-06-10T06:38:02;103150.75;;;12.40;56.52
13476;BME280;6810;63.824;20.288;2023-06-10T06:40:49;103144.47;;;12.42;54.97
13476;BME280;6810;63.824;20.288;2023-06-10T06:43:36;103138.31;;;12.39;55.11
13476;BME280;6810;63.824;20.288;2023-06-10T06:46:24;103146.94;;;12.50;53.46
13476;BME280;6810;63.824;20.288;2023-06-10T06:49:11;103139.66;;;12.55;53.96
13476;BME280;6810;63.824;20.288;2023-06-10T06:51:58;103121.06;;;12.49;53.09
13476;BME280;6810;63.824;20.288;2023-06-10T06:54:45;103142.13;;;12.62;52.68
13476;BME280;6810;63.824;20.288;2023-06-10T06:57:33;103139.31;;;12.67;53.23
13476;BME280;6810;63.824;20.288;2023-06-10T07:00:20;103130.22;;;12.72;53.47
13476;BME280;6810;63.824;20.288;2023-06-10T07:03:07;103142.59;;;12.76;52.74
13476;BME280;6810;63.824;20.288;2023-06-10T07:05:54;103138.91;;;12.80;53.40
13476;BME280;6810;63.824;20.288;2023-06-10T07:08:41;103129.09;;;12.79;52.61
13476;BME280;6810;63.824;20.288;2023-06-10T07:11:28;103130.78;;;12.83;53.32
13476;BME280;6810;63.824;20.288;2023-06-10T07:14:16;103129.69;;;12.90;52.36
13476;BME280;6810;63.824;20.288;2023-06-10T07:17:03;103135.84;;;12.94;52.95
13476;BME280;6810;63.824;20.288;2023-06-10T07:19:50;103107.75;;;12.78;52.59
13476;BME280;6810;63.824;20.288;2023-06-10T07:22:37;103126.81;;;12.96;52.88
13476;BME280;6810;63.824;20.288;2023-06-10T07:25:24;103127.66;;;13.00;53.38
13476;BME280;6810;63.824;20.288;2023-06-10T07:28:11;103139.06;;;13.06;53.17
13476;BME280;6810;63.824;20.288;2023-06-10T07:30:58;103135.38;;;13.10;52.72
13476;BME280;6810;63.824;20.288;2023-06-10T07:33:46;103129.91;;;13.13;53.28
13476;BME280;6810;63.824;20.288;2023-06-10T07:36:33;103098.22;;;12.98;52.53
13476;BME280;6810;63.824;20.288;2023-06-10T07:39:20;103123.50;;;13.19;52.63
13476;BME280;6810;63.824;20.288;2023-06-10T07:42:07;103123.41;;;13.22;52.79
13476;BME280;6810;63.824;20.288;2023-06-10T07:44:54;103120.75;;;13.22;52.39
13476;BME280;6810;63.824;20.288;2023-06-10T07:47:42;103122.25;;;13.30;52.51
13476;BME280;6810;63.824;20.288;2023-06-10T07:50:29;103055.38;;;12.98;52.41
13476;BME280;6810;63.824;20.288;2023-06-10T07:53:16;103110.63;;;13.30;52.25
13476;BME280;6810;63.824;20.288;2023-06-10T07:56:04;103119.16;;;13.42;51.79
13476;BME280;6810;63.824;20.288;2023-06-10T07:58:51;103120.00;;;13.44;50.65
13476;BME280;6810;63.824;20.288;2023-06-10T08:01:38;103121.75;;;13.45;50.82
13476;BME280;6810;63.824;20.288;2023-06-10T08:04:25;103108.50;;;13.41;51.10
13476;BME280;6810;63.824;20.288;2023-06-10T08:07:12;103125.13;;;13.52;50.75
13476;BME280;6810;63.824;20.288;2023-06-10T08:10:00;103124.03;;;13.57;50.31
13476;BME280;6810;63.824;20.288;2023-06-10T08:12:47;103115.03;;;13.60;50.89
13476;BME280;6810;63.824;20.288;2023-06-10T08:15:34;103128.28;;;13.64;50.95
13476;BME280;6810;63.824;20.288;2023-06-10T08:18:21;103129.09;;;13.66;50.58
13476;BME280;6810;63.824;20.288;2023-06-10T08:21:08;103109.38;;;13.69;50.69
13476;BME280;6810;63.824;20.288;2023-06-10T08:23:56;103114.75;;;13.69;50.84
13476;BME280;6810;63.824;20.288;2023-06-10T08:26:43;103119.00;;;13.74;50.39
13476;BME280;6810;63.824;20.288;2023-06-10T08:29:30;103107.34;;;13.75;50.49
13476;BME280;6810;63.824;20.288;2023-06-10T08:32:17;103100.97;;;13.79;50.90
13476;BME280;6810;63.824;20.288;2023-06-10T08:35:05;103111.38;;;13.88;50.03
13476;BME280;6810;63.824;20.288;2023-06-10T08:37:52;103114.84;;;13.92;50.19
13476;BME280;6810;63.824;20.288;2023-06-10T08:40:39;103116.53;;;13.94;50.13
13476;BME280;6810;63.824;20.288;2023-06-10T08:46:47;103118.97;;;14.02;49.67
13476;BME280;6810;63.824;20.288;2023-06-10T11:59:37;102992.44;;;17.58;34.30
13476;BME280;6810;63.824;20.288;2023-06-10T12:02:14;102992.47;;;17.75;34.10
13476;BME280;6810;63.824;20.288;2023-06-10T12:04:41;102989.91;;;17.89;34.71
13476;BME280;6810;63.824;20.288;2023-06-10T12:07:17;102986.41;;;18.04;34.35
13476;BME280;6810;63.824;20.288;2023-06-10T12:09:45;102992.88;;;18.17;34.13
13476;BME280;6810;63.824;20.288;2023-06-10T12:12:12;102975.81;;;18.17;33.45
13476;BME280;6810;63.824;20.288;2023-06-10T12:14:57;102994.78;;;18.32;33.90
13476;BME280;6810;63.824;20.288;2023-06-10T12:19:59;102983.59;;;18.40;33.49
13476;BME280;6810;63.824;20.288;2023-06-10T12:22:36;102987.69;;;18.47;33.36
13476;BME280;6810;63.824;20.288;2023-06-10T12:25:04;102975.41;;;18.41;32.75
13476;BME280;6810;63.824;20.288;2023-06-10T12:27:35;102969.91;;;18.43;33.63
13476;BME280;6810;63.824;20.288;2023-06-10T12:30:04;102972.34;;;18.47;33.16
13476;BME280;6810;63.824;20.288;2023-06-10T12:35:04;102968.78;;;18.47;32.87
13476;BME280;6810;63.824;20.288;2023-06-10T12:37:32;102962.66;;;18.43;31.92
13476;BME280;6810;63.824;20.288;2023-06-10T12:40:08;102968.53;;;18.34;32.76
13476;BME280;6810;63.824;20.288;2023-06-10T12:42:37;102964.44;;;18.27;32.94
13476;BME280;6810;63.824;20.288;2023-06-10T12:45:05;102957.34;;;18.25;33.07
13476;BME280;6810;63.824;20.288;2023-06-10T12:47:37;102961.56;;;18.30;33.42
13476;BME280;6810;63.824;20.288;2023-06-10T12:50:07;102955.84;;;18.36;33.39
13476;BME280;6810;63.824;20.288;2023-06-10T12:52:35;102952.41;;;18.50;32.46
13476;BME280;6810;63.824;20.288;2023-06-10T12:55:02;102956.94;;;18.65;32.76
13476;BME280;6810;63.824;20.288;2023-06-10T12:57:31;102955.22;;;18.79;32.24
13476;BME280;6810;63.824;20.288;2023-06-10T12:59:58;102956.94;;;18.96;32.21
13476;BME280;6810;63.824;20.288;2023-06-10T13:02:32;102945.16;;;19.13;31.71
13476;BME280;6810;63.824;20.288;2023-06-10T13:04:59;102946.03;;;19.13;31.76
13476;BME280;6810;63.824;20.288;2023-06-10T13:07:27;102940.38;;;19.02;30.78
13476;BME280;6810;63.824;20.288;2023-06-10T13:09:54;102951.38;;;18.83;31.47
13476;BME280;6810;63.824;20.288;2023-06-10T13:12:21;102935.75;;;18.57;31.68
13476;BME280;6810;63.824;20.288;2023-06-10T13:15:04;102945.09;;;18.35;30.58
13476;BME280;6810;63.824;20.288;2023-06-10T13:17:31;102957.09;;;18.14;31.63
13476;BME280;6810;63.824;20.288;2023-06-10T13:20:05;102940.03;;;17.96;31.47
13476;BME280;6810;63.824;20.288;2023-06-10T13:22:33;102937.03;;;17.85;32.31
13476;BME280;6810;63.824;20.288;2023-06-10T13:25:05;102946.34;;;17.80;32.40
13476;BME280;6810;63.824;20.288;2023-06-10T13:27:35;102936.13;;;17.69;32.26
13476;BME280;6810;63.824;20.288;2023-06-10T13:30:06;102940.06;;;17.62;32.54
13476;BME280;6810;63.824;20.288;2023-06-10T13:32:34;102931.44;;;17.56;31.88
13476;BME280;6810;63.824;20.288;2023-06-10T13:35:01;102942.56;;;17.50;32.05
13476;BME280;6810;63.824;20.288;2023-06-10T13:37:31;102929.53;;;17.41;32.86
13476;BME280;6810;63.824;20.288;2023-06-10T13:40:01;102910.16;;;17.33;32.69
13476;BME280;6810;63.824;20.288;2023-06-10T13:42:29;102920.78;;;17.36;32.72
13476;BME280;6810;63.824;20.288;2023-06-10T13:44:57;102927.50;;;17.27;32.83
13476;BME280;6810;63.824;20.288;2023-06-10T13:47:44;102921.88;;;17.14;33.45
13476;BME280;6810;63.824;20.288;2023-06-10T13:50:31;102921.88;;;17.14;32.99
13476;BME280;6810;63.824;20.288;2023-06-10T13:53:18;102908.47;;;17.13;32.51
13476;BME280;6810;63.824;20.288;2023-06-10T13:56:06;102902.97;;;16.97;32.84
13476;BME280;6810;63.824;20.288;2023-06-10T13:58:53;102917.03;;;17.04;32.63
13476;BME280;6810;63.824;20.288;2023-06-10T14:01:40;102909.09;;;17.01;32.69
13476;BME280;6810;63.824;20.288;2023-06-10T14:04:27;102880.59;;;16.78;32.49
13476;BME280;6810;63.824;20.288;2023-06-10T14:07:14;102904.13;;;16.92;33.28
13476;BME280;6810;63.824;20.288;2023-06-10T14:10:01;102894.25;;;16.92;33.32
13476;BME280;6810;63.824;20.288;2023-06-10T14:12:49;102899.63;;;16.92;33.50
13476;BME280;6810;63.824;20.288;2023-06-10T14:15:36;102885.19;;;16.93;32.93
13476;BME280;6810;63.824;20.288;2023-06-10T14:18:23;102880.84;;;16.91;33.19
13476;BME280;6810;63.824;20.288;2023-06-10T14:21:10;102886.31;;;16.89;33.42
13476;BME280;6810;63.824;20.288;2023-06-10T14:23:57;102897.09;;;16.89;33.32
13476;BME280;6810;63.824;20.288;2023-06-10T14:26:44;102886.63;;;16.83;33.29
13476;BME280;6810;63.824;20.288;2023-06-10T14:29:31;102884.38;;;16.74;33.59
13476;BME280;6810;63.824;20.288;2023-06-10T14:32:18;102883.06;;;16.64;33.36
13476;BME280;6810;63.824;20.288;2023-06-10T14:35:06;102878.81;;;16.60;33.68
13476;BME280;6810;63.824;20.288;2023-06-10T14:37:53;102880.75;;;16.57;33.99
13476;BME280;6810;63.824;20.288;2023-06-10T14:40:40;102877.28;;;16.55;33.97
13476;BME280;6810;63.824;20.288;2023-06-10T14:43:27;102868.19;;;16.57;33.94
13476;BME280;6810;63.824;20.288;2023-06-10T14:46:14;102867.53;;;16.52;34.48
13476;BME280;6810;63.824;20.288;2023-06-10T14:49:01;102870.38;;;16.49;34.48
13476;BME280;6810;63.824;20.288;2023-06-10T14:51:48;102871.47;;;16.45;34.26
13476;BME280;6810;63.824;20.288;2023-06-10T14:54:35;102860.56;;;16.48;34.89
13476;BME280;6810;63.824;20.288;2023-06-10T14:57:22;102862.44;;;16.46;34.66
13476;BME280;6810;63.824;20.288;2023-06-10T15:00:09;102858.97;;;16.44;35.27
13476;BME280;6810;63.824;20.288;2023-06-10T15:02:57;102872.91;;;16.52;35.37
13476;BME280;6810;63.824;20.288;2023-06-10T15:05:44;102867.53;;;16.52;35.83
13476;BME280;6810;63.824;20.288;2023-06-10T15:08:31;102863.09;;;16.51;35.40
13476;BME280;6810;63.824;20.288;2023-06-10T15:11:18;102864.97;;;16.49;35.92
13476;BME280;6810;63.824;20.288;2023-06-10T15:14:05;102871.41;;;16.47;36.31
13476;BME280;6810;63.824;20.288;2023-06-10T15:16:52;102857.72;;;16.51;36.10
13476;BME280;6810;63.824;20.288;2023-06-10T15:19:39;102861.91;;;16.57;36.64
13476;BME280;6810;63.824;20.288;2023-06-10T15:22:26;102784.41;;;16.09;36.59
13476;BME280;6810;63.824;20.288;2023-06-10T15:25:14;102860.41;;;16.51;36.64
13476;BME280;6810;63.824;20.288;2023-06-10T15:28:01;102860.19;;;16.56;36.83
13476;BME280;6810;63.824;20.288;2023-06-10T15:30:49;102854.72;;;16.57;37.12
13476;BME280;6810;63.824;20.288;2023-06-10T15:33:36;102858.06;;;16.62;36.46
13476;BME280;6810;63.824;20.288;2023-06-10T15:36:23;102860.69;;;16.64;37.13
13476;BME280;6810;63.824;20.288;2023-06-10T15:39:10;102858.56;;;16.70;36.74
13476;BME280;6810;63.824;20.288;2023-06-10T15:41:57;102856.25;;;16.80;36.39
13476;BME280;6810;63.824;20.288;2023-06-10T15:44:44;102849.47;;;16.90;36.49
13476;BME280;6810;63.824;20.288;2023-06-10T15:47:31;102836.84;;;16.90;36.09
13476;BME280;6810;63.824;20.288;2023-06-10T15:50:18;102842.50;;;17.03;36.87
13476;BME280;6810;63.824;20.288;2023-06-10T15:53:05;102841.00;;;17.14;36.44
13476;BME280;6810;63.824;20.288;2023-06-10T15:55:52;102825.84;;;17.29;36.72
13476;BME280;6810;63.824;20.288;2023-06-10T15:58:40;102823.94;;;17.65;37.14
13476;BME280;6810;63.824;20.288;2023-06-10T16:01:27;102827.59;;;18.12;35.53
13476;BME280;6810;63.824;20.288;2023-06-10T16:04:15;102837.19;;;18.49;34.97
13476;BME280;6810;63.824;20.288;2023-06-10T16:07:02;102837.88;;;18.68;34.93
13476;BME280;6810;63.824;20.288;2023-06-10T16:09:49;102838.00;;;18.96;34.67
13476;BME280;6810;63.824;20.288;2023-06-10T16:12:36;102747.38;;;18.75;33.80
13476;BME280;6810;63.824;20.288;2023-06-10T16:15:24;102828.28;;;19.37;33.98
13476;BME280;6810;63.824;20.288;2023-06-10T16:18:10;102822.09;;;19.49;33.56
13476;BME280;6810;63.824;20.288;2023-06-10T16:20:58;102834.03;;;19.61;34.18
13476;BME280;6810;63.824;20.288;2023-06-10T16:23:44;102817.50;;;19.65;33.33
13476;BME280;6810;63.824;20.288;2023-06-10T16:26:32;102815.94;;;19.75;32.94
13476;BME280;6810;63.824;20.288;2023-06-10T16:29:19;102824.06;;;19.75;33.53
13476;BME280;6810;63.824;20.288;2023-06-10T16:32:06;102814.78;;;19.79;33.35
13476;BME280;6810;63.824;20.288;2023-06-10T16:34:53;102814.97;;;19.76;33.61
13476;BME280;6810;63.824;20.288;2023-06-10T16:37:40;102819.97;;;19.96;32.79
13476;BME280;6810;63.824;20.288;2023-06-10T16:40:29;102813.13;;;20.05;32.87
13476;BME280;6810;63.824;20.288;2023-06-10T16:43:17;102808.00;;;20.00;32.78
13476;BME280;6810;63.824;20.288;2023-06-10T16:46:03;102809.06;;;19.84;32.64
13476;BME280;6810;63.824;20.288;2023-06-10T16:48:51;102814.03;;;19.77;33.00
13476;BME280;6810;63.824;20.288;2023-06-10T16:51:38;102794.78;;;19.82;33.16
13476;BME280;6810;63.824;20.288;2023-06-10T16:54:25;102794.97;;;19.79;32.94
13476;BME280;6810;63.824;20.288;2023-06-10T16:57:12;102806.16;;;19.87;33.56
13476;BME280;6810;63.824;20.288;2023-06-10T16:59:59;102802.59;;;20.00;33.07
13476;BME280;6810;63.824;20.288;2023-06-10T17:02:46;102785.78;;;19.81;32.46
13476;BME280;6810;63.824;20.288;2023-06-10T17:05:33;102803.28;;;19.62;33.27
13476;BME280;6810;63.824;20.288;2023-06-10T17:08:20;102815.06;;;19.47;33.39
13476;BME280;6810;63.824;20.288;2023-06-10T17:11:07;102803.97;;;19.22;33.78
13476;BME280;6810;63.824;20.288;2023-06-10T17:13:54;102804.84;;;19.22;33.78
13476;BME280;6810;63.824;20.288;2023-06-10T17:16:42;102794.41;;;19.16;33.98
13476;BME280;6810;63.824;20.288;2023-06-10T17:19:29;102791.06;;;18.97;33.63
13476;BME280;6810;63.824;20.288;2023-06-10T17:22:17;102794.16;;;18.75;33.86
13476;BME280;6810;63.824;20.288;2023-06-10T17:25:04;102787.94;;;18.59;34.77
13476;BME280;6810;63.824;20.288;2023-06-10T17:27:51;102790.66;;;18.44;34.34
13476;BME280;6810;63.824;20.288;2023-06-10T17:30:38;102785.31;;;18.27;34.99
13476;BME280;6810;63.824;20.288;2023-06-10T17:33:26;102786.81;;;18.17;35.73
13476;BME280;6810;63.824;20.288;2023-06-10T17:36:12;102785.25;;;18.13;35.46
13476;BME280;6810;63.824;20.288;2023-06-10T17:39:00;102787.75;;;18.16;35.39
13476;BME280;6810;63.824;20.288;2023-06-10T17:41:47;102784.13;;;18.17;35.92
13476;BME280;6810;63.824;20.288;2023-06-10T17:44:34;102761.38;;;18.05;35.59
13476;BME280;6810;63.824;20.288;2023-06-10T17:47:21;102761.09;;;17.94;35.55